Time;durP1;ratioP1;P1;durP2;ratioP2;P2;SDS_P1;SDS_P2;PMS_P1;PMS_P2;Temp;Humidity;BMP_temperature;BMP_pressure;BME280_temperature;BME280_humidity;BME280_pressure;Samples;Min_cycle;Max_cycle;Signal;HPM_P1;HPM_P2
2022/04/23 00:00:39;;;;;;;;;51.40;42.20;;;;;;;;5225522;28;8817;-67
2022/04/23 00:03:11;;;;;;;;;52.20;43.60;;;;;;;;5226057;28;8797;-66
2022/04/23 00:06:01;;;;;;;;;40.80;39.60;;;;;;;;5225219;28;8805;-67
2022/04/23 00:08:33;;;;;;;;;37.00;35.80;;;;;;;;5225093;28;8790;-66
2022/04/23 00:11:23;;;;;;;;;56.20;46.00;;;;;;;;5211243;28;8793;-66
2022/04/23 00:13:58;;;;;;;;;43.60;40.00;;;;;;;;5224451;28;8810;-66
2022/04/23 00:16:30;;;;;;;;;31.00;29.60;;;;;;;;5224708;28;8762;-66
2022/04/23 00:19:02;;;;;;;;;21.20;20.60;;;;;;;;5191659;28;8809;-67
2022/04/23 00:21:35;;;;;;;;;22.60;20.40;;;;;;;;5225624;28;8806;-67
2022/04/23 00:24:07;;;;;;;;;19.00;18.40;;;;;;;;5224440;28;8940;-66
2022/04/23 00:26:40;;;;;;;;;14.60;14.20;;;;;;;;5225288;28;8905;-67
2022/04/23 00:29:30;;;;;;;;;12.80;12.20;;;;;;;;5225358;28;8790;-67
2022/04/23 00:32:02;;;;;;;;;9.80;9.80;;;;;;;;5226131;28;8793;-67
2022/04/23 00:34:34;;;;;;;;;13.00;12.20;;;;;;;;5225528;28;8964;-67
2022/04/23 00:37:06;;;;;;;;;12.20;12.20;;;;;;;;5207878;28;8766;-67
2022/04/23 00:39:38;;;;;;;;;14.80;14.40;;;;;;;;5225824;28;8786;-65
2022/04/23 00:42:11;;;;;;;;;16.20;16.20;;;;;;;;5207906;28;8777;-68
2022/04/23 00:44:43;;;;;;;;;25.60;21.00;;;;;;;;5223305;28;8833;-66
2022/04/23 00:47:14;;;;;;;;;23.40;23.00;;;;;;;;5224384;28;9519;-66
2022/04/23 00:49:47;;;;;;;;;34.20;30.40;;;;;;;;5223767;28;8809;-67
2022/04/23 00:52:19;;;;;;;;;28.00;26.40;;;;;;;;5228935;28;8794;-67
2022/04/23 00:54:50;;;;;;;;;20.00;20.00;;;;;;;;5229047;28;8837;-67
2022/04/23 00:57:22;;;;;;;;;15.00;15.00;;;;;;;;5207358;28;8795;-67
2022/04/23 00:59:54;;;;;;;;;16.80;16.80;;;;;;;;5209046;28;8784;-67
2022/04/23 01:02:25;;;;;;;;;14.00;13.40;;;;;;;;5191249;28;8777;-67
2022/04/23 01:04:56;;;;;;;;;21.20;20.40;;;;;;;;5208831;28;8870;-67
2022/04/23 01:07:27;;;;;;;;;15.60;15.20;;;;;;;;5212920;28;8778;-68
2022/04/23 01:09:59;;;;;;;;;13.20;13.00;;;;;;;;5229301;28;8897;-67
2022/04/23 01:12:32;;;;;;;;;13.80;12.80;;;;;;;;5228808;28;8819;-67
2022/04/23 01:15:05;;;;;;;;;18.00;16.40;;;;;;;;5230218;28;8785;-67
2022/04/23 01:17:36;;;;;;;;;9.20;8.80;;;;;;;;5235672;28;8812;-67
2022/04/23 01:20:09;;;;;;;;;6.00;6.00;;;;;;;;5237527;28;8786;-67
2022/04/23 01:22:44;;;;;;;;;11.00;9.40;;;;;;;;5269086;28;8813;-67
2022/04/23 01:25:15;;;;;;;;;9.00;9.00;;;;;;;;5236516;28;8810;-67
2022/04/23 01:27:47;;;;;;;;;14.40;13.00;;;;;;;;5235771;28;8793;-67
2022/04/23 01:30:19;;;;;;;;;12.00;12.00;;;;;;;;5213751;28;8855;-67
2022/04/23 01:32:50;;;;;;;;;14.20;14.20;;;;;;;;5228259;28;8907;-68
2022/04/23 01:35:22;;;;;;;;;7.20;6.80;;;;;;;;5229602;28;8789;-67
2022/04/23 01:37:53;;;;;;;;;12.80;12.80;;;;;;;;5229662;28;8863;-68
2022/04/23 01:40:24;;;;;;;;;13.80;13.60;;;;;;;;5211433;28;8774;-67
2022/04/23 01:42:56;;;;;;;;;8.60;8.60;;;;;;;;5206906;28;8801;-67
2022/04/23 01:45:27;;;;;;;;;6.60;6.60;;;;;;;;5207964;28;8796;-67
2022/04/23 01:47:59;;;;;;;;;9.00;9.00;;;;;;;;5225863;28;8805;-67
2022/04/23 01:50:31;;;;;;;;;9.80;9.20;;;;;;;;5227480;28;8774;-67
2022/04/23 01:53:02;;;;;;;;;8.80;8.80;;;;;;;;5210763;28;8983;-67
2022/04/23 01:55:33;;;;;;;;;10.40;10.00;;;;;;;;5228083;28;8782;-67
2022/04/23 01:58:05;;;;;;;;;11.00;11.00;;;;;;;;5210755;28;8789;-68
2022/04/23 02:00:36;;;;;;;;;13.75;13.25;;;;;;;;5227170;28;8782;-67
2022/04/23 02:03:08;;;;;;;;;13.00;13.00;;;;;;;;5226095;28;10007;-67
2022/04/23 02:05:39;;;;;;;;;14.75;14.00;;;;;;;;5226826;28;9011;-67
2022/04/23 02:08:13;;;;;;;;;13.40;13.40;;;;;;;;5228405;28;11449;-67
2022/04/23 02:10:47;;;;;;;;;10.00;10.00;;;;;;;;5226907;28;8843;-67
2022/04/23 02:13:18;;;;;;;;;10.80;10.80;;;;;;;;5210632;28;8817;-67
2022/04/23 02:15:49;;;;;;;;;12.40;12.40;;;;;;;;5210252;28;8781;-68
2022/04/23 02:18:21;;;;;;;;;18.25;18.25;;;;;;;;5227075;28;8896;-68
2022/04/23 02:20:54;;;;;;;;;14.00;14.00;;;;;;;;5226273;28;11568;-68
2022/04/23 02:23:25;;;;;;;;;14.60;14.60;;;;;;;;5210372;28;8790;-68
2022/04/23 02:25:57;;;;;;;;;14.40;14.00;;;;;;;;5226687;28;8790;-67
2022/04/23 02:28:28;;;;;;;;;10.40;10.40;;;;;;;;5226718;28;8782;-67
2022/04/23 02:31:00;;;;;;;;;16.60;15.40;;;;;;;;5226777;28;8812;-67
2022/04/23 02:33:31;;;;;;;;;19.60;18.80;;;;;;;;5226003;28;8804;-66
2022/04/23 02:36:06;;;;;;;;;18.00;15.00;;;;;;;;5226446;28;8814;-67
2022/04/23 02:38:55;;;;;;;;;17.00;17.00;;;;;;;;5226737;28;8800;-68
2022/04/23 02:41:44;;;;;;;;;20.20;18.80;;;;;;;;5226598;28;8808;-66
2022/04/23 02:44:15;;;;;;;;;22.80;21.80;;;;;;;;5227395;28;8794;-65
2022/04/23 02:46:46;;;;;;;;;28.40;23.60;;;;;;;;5227444;28;8820;-67
2022/04/23 02:49:18;;;;;;;;;23.00;23.00;;;;;;;;5226180;28;8803;-65
2022/04/23 02:51:50;;;;;;;;;28.80;27.60;;;;;;;;5226205;28;8778;-66
2022/04/23 02:54:39;;;;;;;;;27.40;26.80;;;;;;;;5226041;28;8818;-66
2022/04/23 02:57:11;;;;;;;;;53.60;47.00;;;;;;;;5242639;28;8920;-68
2022/04/23 02:59:42;;;;;;;;;53.80;46.60;;;;;;;;5209596;28;8793;-67
2022/04/23 03:02:13;;;;;;;;;33.20;32.40;;;;;;;;5209581;28;8786;-68
2022/04/23 03:04:44;;;;;;;;;23.50;21.50;;;;;;;;5216154;28;8812;-67
2022/04/23 03:07:15;;;;;;;;;15.00;15.00;;;;;;;;5207276;28;11755;-67
2022/04/23 03:10:05;;;;;;;;;15.60;15.60;;;;;;;;5205503;28;9490;-67
2022/04/23 03:12:38;;;;;;;;;9.20;9.20;;;;;;;;5206278;28;8784;-67
2022/04/23 03:15:11;;;;;;;;;11.60;11.60;;;;;;;;5255792;28;8826;-67
2022/04/23 03:17:43;;;;;;;;;15.40;14.60;;;;;;;;5226134;28;8778;-67
2022/04/23 03:20:32;;;;;;;;;6.20;6.20;;;;;;;;5225233;28;8805;-67
2022/04/23 03:23:04;;;;;;;;;17.25;16.75;;;;;;;;5225636;28;8824;-68
2022/04/23 03:25:35;;;;;;;;;16.00;16.00;;;;;;;;5221113;28;10022;-68
2022/04/23 03:28:07;;;;;;;;;20.20;20.20;;;;;;;;5224302;28;9414;-68
2022/04/23 03:30:38;;;;;;;;;16.60;16.60;;;;;;;;5225632;28;8805;-67
2022/04/23 03:33:10;;;;;;;;;12.20;12.20;;;;;;;;5209627;28;9489;-68
2022/04/23 03:35:41;;;;;;;;;10.80;10.80;;;;;;;;5225134;28;8879;-68
2022/04/23 03:38:13;;;;;;;;;27.60;27.00;;;;;;;;5225481;28;8785;-68
2022/04/23 03:41:02;;;;;;;;;42.60;36.80;;;;;;;;5226381;28;8875;-68
2022/04/23 03:43:33;;;;;;;;;58.80;47.80;;;;;;;;5224562;28;8813;-67
2022/04/23 03:46:04;;;;;;;;;34.40;31.40;;;;;;;;5224270;28;8808;-68
2022/04/23 03:48:36;;;;;;;;;46.40;38.80;;;;;;;;5241770;28;9573;-68
2022/04/23 03:51:07;;;;;;;;;26.50;23.25;;;;;;;;5196923;28;8798;-67
2022/04/23 03:53:38;;;;;;;;;15.80;15.80;;;;;;;;5224436;28;8969;-70
2022/04/23 03:56:12;;;;;;;;;20.75;18.25;;;;;;;;5224417;28;8828;-68
2022/04/23 03:58:43;;;;;;;;;9.80;9.60;;;;;;;;5224829;28;11948;-68
2022/04/23 04:01:14;;;;;;;;;10.80;10.80;;;;;;;;5224561;28;8785;-66
2022/04/23 04:04:05;;;;;;;;;7.20;7.20;;;;;;;;5225968;28;8798;-68
2022/04/23 04:06:36;;;;;;;;;4.80;4.80;;;;;;;;5225690;28;9322;-68
2022/04/23 04:09:07;;;;;;;;;4.00;3.50;;;;;;;;5227035;28;8804;-67
2022/04/23 04:14:47;;;;;;;;;11.80;11.60;;;;;;;;5227330;28;8829;-68
2022/04/23 04:17:18;;;;;;;;;6.40;6.40;;;;;;;;5258873;28;8801;-68
2022/04/23 04:19:50;;;;;;;;;9.40;9.40;;;;;;;;5210794;28;8796;-67
2022/04/23 04:22:21;;;;;;;;;10.60;10.20;;;;;;;;5211483;28;9556;-68
2022/04/23 04:25:13;;;;;;;;;27.20;24.40;;;;;;;;5212763;28;9500;-67
2022/04/23 04:27:44;;;;;;;;;23.20;22.40;;;;;;;;5227822;28;8782;-68
2022/04/23 04:30:14;;;;;;;;;16.25;16.25;;;;;;;;5211212;28;8786;-68
2022/04/23 04:32:46;;;;;;;;;9.00;9.00;;;;;;;;5227646;28;9548;-67
2022/04/23 04:35:17;;;;;;;;;10.40;9.80;;;;;;;;5228557;28;8798;-69
2022/04/23 04:37:48;;;;;;;;;6.40;6.40;;;;;;;;5234548;28;8782;-73
2022/04/23 04:40:19;;;;;;;;;10.00;10.00;;;;;;;;5252731;28;9000;-69
2022/04/23 04:42:50;;;;;;;;;15.00;14.25;;;;;;;;5252473;28;8799;-69
2022/04/23 04:45:21;;;;;;;;;16.20;16.20;;;;;;;;5251783;28;11476;-68
2022/04/23 04:47:52;;;;;;;;;15.00;15.00;;;;;;;;5233993;28;8850;-70
2022/04/23 04:50:23;;;;;;;;;14.40;13.00;;;;;;;;5233284;28;11475;-68
2022/04/23 04:53:13;;;;;;;;;16.60;16.00;;;;;;;;5234674;28;8870;-69
2022/04/23 04:55:44;;;;;;;;;31.50;29.00;;;;;;;;5235276;28;8770;-69
2022/04/23 04:58:15;;;;;;;;;12.00;11.40;;;;;;;;5232162;28;8782;-68
2022/04/23 05:01:05;;;;;;;;;10.80;10.80;;;;;;;;5231110;28;8813;-69
2022/04/23 05:03:36;;;;;;;;;18.25;17.00;;;;;;;;5218466;28;8794;-68
2022/04/23 05:06:26;;;;;;;;;16.00;15.60;;;;;;;;5228096;28;8805;-71
2022/04/23 05:08:57;;;;;;;;;10.40;10.40;;;;;;;;5227620;28;8791;-71
2022/04/23 05:11:28;;;;;;;;;12.80;12.80;;;;;;;;5208717;28;8923;-69
2022/04/23 05:14:18;;;;;;;;;16.40;14.60;;;;;;;;5215915;28;8860;-69
2022/04/23 05:16:49;;;;;;;;;9.40;9.40;;;;;;;;5224717;28;8813;-69
2022/04/23 05:19:20;;;;;;;;;15.80;14.40;;;;;;;;5223949;28;8825;-70
2022/04/23 05:21:51;;;;;;;;;14.40;14.40;;;;;;;;5191717;28;8895;-70
2022/04/23 05:24:24;;;;;;;;;12.00;11.00;;;;;;;;5186446;28;8855;-69
2022/04/23 05:26:55;;;;;;;;;9.80;9.00;;;;;;;;5205195;28;8937;-68
2022/04/23 05:29:26;;;;;;;;;7.75;7.00;;;;;;;;5225049;28;8914;-67
2022/04/23 05:31:57;;;;;;;;;10.00;9.20;;;;;;;;5207746;28;11237;-67
2022/04/23 05:34:28;;;;;;;;;6.00;5.50;;;;;;;;5223480;28;9579;-67
2022/04/23 05:37:00;;;;;;;;;6.20;6.20;;;;;;;;5224437;28;10820;-68
2022/04/23 05:39:32;;;;;;;;;7.80;7.80;;;;;;;;5229161;28;8781;-67
2022/04/23 05:42:03;;;;;;;;;18.00;18.00;;;;;;;;5227780;28;8894;-67
2022/04/23 05:44:34;;;;;;;;;11.20;10.60;;;;;;;;5228681;28;9548;-69
2022/04/23 05:47:05;;;;;;;;;9.50;8.75;;;;;;;;5227053;28;8798;-68
2022/04/23 05:49:39;;;;;;;;;8.80;8.80;;;;;;;;5228535;28;9628;-68
2022/04/23 05:52:11;;;;;;;;;11.40;11.40;;;;;;;;5227315;28;8868;-68
2022/04/23 05:54:41;;;;;;;;;11.50;10.50;;;;;;;;5228240;28;8809;-68
2022/04/23 05:57:13;;;;;;;;;15.25;13.75;;;;;;;;5228540;28;10399;-68
2022/04/23 05:59:44;;;;;;;;;17.00;16.80;;;;;;;;5226716;28;9587;-68
2022/04/23 06:02:34;;;;;;;;;17.20;16.80;;;;;;;;5228369;28;8821;-68
2022/04/23 06:05:06;;;;;;;;;23.00;22.00;;;;;;;;5227033;28;8804;-68
2022/04/23 06:07:38;;;;;;;;;24.00;22.40;;;;;;;;5210534;28;8782;-68
2022/04/23 06:10:10;;;;;;;;;23.00;23.00;;;;;;;;5226849;28;8878;-68
2022/04/23 06:12:42;;;;;;;;;15.40;14.80;;;;;;;;5226755;28;11593;-68
2022/04/23 06:15:13;;;;;;;;;18.00;18.00;;;;;;;;5226405;28;8941;-68
2022/04/23 06:17:45;;;;;;;;;9.60;9.20;;;;;;;;5226493;28;8923;-68
2022/04/23 06:20:17;;;;;;;;;20.00;20.00;;;;;;;;5189815;28;8816;-68
2022/04/23 06:23:06;;;;;;;;;17.40;17.20;;;;;;;;5206426;28;8804;-68
2022/04/23 06:25:37;;;;;;;;;16.00;13.25;;;;;;;;5205984;28;8872;-68
2022/04/23 06:28:10;;;;;;;;;11.60;11.60;;;;;;;;5205965;28;8918;-68
2022/04/23 06:30:41;;;;;;;;;15.40;15.00;;;;;;;;5206144;28;8780;-69
2022/04/23 06:33:12;;;;;;;;;9.40;9.40;;;;;;;;5215502;28;8873;-67
2022/04/23 06:35:43;;;;;;;;;8.75;7.25;;;;;;;;5210313;28;8799;-68
2022/04/23 06:38:14;;;;;;;;;10.40;9.60;;;;;;;;5209673;28;11528;-68
2022/04/23 06:40:47;;;;;;;;;11.60;9.40;;;;;;;;5210031;28;8788;-68
2022/04/23 06:43:18;;;;;;;;;5.60;5.60;;;;;;;;5226035;28;8815;-68
2022/04/23 06:46:08;;;;;;;;;6.40;6.40;;;;;;;;5206191;28;8784;-68
2022/04/23 06:48:39;;;;;;;;;6.00;6.00;;;;;;;;5205082;28;8796;-68
2022/04/23 06:51:10;;;;;;;;;4.80;4.80;;;;;;;;5205633;28;11622;-68
2022/04/23 06:53:41;;;;;;;;;2.20;2.20;;;;;;;;5172503;28;8843;-68
2022/04/23 06:56:32;;;;;;;;;14.20;14.20;;;;;;;;5205800;28;8776;-68
2022/04/23 06:59:04;;;;;;;;;6.60;6.60;;;;;;;;5199294;28;8813;-69
2022/04/23 07:01:35;;;;;;;;;6.40;6.40;;;;;;;;5225875;28;8781;-69
2022/04/23 07:04:10;;;;;;;;;5.00;5.00;;;;;;;;5226658;28;8793;-68
2022/04/23 07:06:41;;;;;;;;;4.60;4.60;;;;;;;;5209263;28;8924;-68
2022/04/23 07:09:12;;;;;;;;;4.25;4.25;;;;;;;;5226096;28;8916;-68
2022/04/23 07:11:43;;;;;;;;;5.60;5.60;;;;;;;;5225201;28;8883;-69
2022/04/23 07:14:14;;;;;;;;;7.20;7.20;;;;;;;;5226261;28;9546;-69
2022/04/23 07:16:47;;;;;;;;;9.50;9.50;;;;;;;;5225772;28;8793;-69
2022/04/23 07:19:18;;;;;;;;;3.40;3.40;;;;;;;;5225478;28;11028;-67
2022/04/23 07:22:08;;;;;;;;;4.50;4.50;;;;;;;;5226930;28;8810;-70
2022/04/23 07:24:40;;;;;;;;;2.60;2.60;;;;;;;;5208564;28;8844;-71
2022/04/23 07:27:11;;;;;;;;;3.25;3.25;;;;;;;;5209199;28;8850;-71
2022/04/23 07:29:42;;;;;;;;;3.50;3.50;;;;;;;;5208956;28;8774;-71
2022/04/23 07:32:15;;;;;;;;;5.00;5.00;;;;;;;;5208700;28;8833;-71
2022/04/23 07:37:36;;;;;;;;;6.75;6.75;;;;;;;;5225318;28;8810;-71
2022/04/23 07:40:11;;;;;;;;;3.75;3.75;;;;;;;;5204158;28;8811;-71
2022/04/23 07:42:42;;;;;;;;;1.50;1.50;;;;;;;;5204171;28;8814;-71
2022/04/23 07:45:14;;;;;;;;;3.75;3.75;;;;;;;;5224965;28;9038;-71
2022/04/23 07:47:46;;;;;;;;;5.00;5.00;;;;;;;;5226042;28;8800;-71
2022/04/23 07:50:37;;;;;;;;;4.00;4.00;;;;;;;;5225334;28;8790;-70
2022/04/23 07:53:09;;;;;;;;;4.00;4.00;;;;;;;;5208518;28;9542;-70
2022/04/23 07:55:40;;;;;;;;;6.33;6.33;;;;;;;;5224781;28;8851;-71
2022/04/23 07:58:11;;;;;;;;;4.00;3.50;;;;;;;;5224839;28;8793;-72
2022/04/23 08:00:44;;;;;;;;;3.40;3.40;;;;;;;;5224990;28;9508;-71
2022/04/23 08:03:15;;;;;;;;;5.00;4.75;;;;;;;;5224885;28;8916;-72
2022/04/23 08:05:47;;;;;;;;;5.00;5.00;;;;;;;;5223126;28;8797;-71
2022/04/23 08:08:19;;;;;;;;;7.25;7.25;;;;;;;;5206435;28;8794;-71
2022/04/23 08:10:50;;;;;;;;;5.00;5.00;;;;;;;;5206322;28;8790;-71
2022/04/23 08:13:22;;;;;;;;;5.00;5.00;;;;;;;;5206388;28;8920;-71
2022/04/23 08:15:54;;;;;;;;;4.50;4.50;;;;;;;;5201989;28;8828;-71
2022/04/23 08:18:24;;;;;;;;;5.25;5.25;;;;;;;;5202253;28;9527;-71
2022/04/23 08:20:55;;;;;;;;;0.00;0.00;;;;;;;;5214407;28;8826;-71
2022/04/23 08:23:45;;;;;;;;;2.00;2.00;;;;;;;;5223113;28;8821;-71
2022/04/23 08:26:16;;;;;;;;;2.00;2.00;;;;;;;;5223140;28;8782;-71
2022/04/23 08:31:36;;;;;;;;;4.75;4.75;;;;;;;;5204522;28;8817;-72
2022/04/23 08:34:08;;;;;;;;;4.00;4.00;;;;;;;;5218976;28;9547;-72
2022/04/23 08:36:39;;;;;;;;;29.40;27.60;;;;;;;;5205124;28;8842;-72
2022/04/23 08:39:28;;;;;;;;;5.00;5.00;;;;;;;;5220166;28;8826;-72
2022/04/23 08:42:02;;;;;;;;;3.50;3.50;;;;;;;;5226057;28;8849;-72
2022/04/23 08:44:33;;;;;;;;;6.00;6.00;;;;;;;;5242870;28;8802;-72
2022/04/23 08:47:23;;;;;;;;;6.00;6.00;;;;;;;;5244484;28;8859;-72
2022/04/23 08:49:57;;;;;;;;;4.50;4.50;;;;;;;;5259859;28;8797;-71
2022/04/23 08:52:32;;;;;;;;;6.00;6.00;;;;;;;;5276286;28;8790;-73
2022/04/23 08:55:05;;;;;;;;;3.50;3.50;;;;;;;;5222260;28;8844;-73
2022/04/23 08:57:36;;;;;;;;;6.00;5.00;;;;;;;;5205756;28;8810;-72
2022/04/23 09:00:08;;;;;;;;;5.50;5.50;;;;;;;;5205510;28;8825;-72
2022/04/23 09:02:40;;;;;;;;;4.25;4.25;;;;;;;;5205608;28;8805;-70
2022/04/23 09:05:12;;;;;;;;;2.50;2.50;;;;;;;;5205787;28;8793;-71
2022/04/23 09:07:53;;;;;;;;;0.00;0.00;;;;;;;;5205953;28;8812;-71
2022/04/23 09:10:44;;;;;;;;;1.00;1.00;;;;;;;;5189315;28;8809;-72
2022/04/23 09:13:25;;;;;;;;;4.75;4.00;;;;;;;;5192139;28;8872;-73
2022/04/23 09:24:45;;;;;;;;;13.00;13.00;;;;;;;;5225914;28;8838;-73
2022/04/23 09:27:16;;;;;;;;;8.25;8.25;;;;;;;;5192646;28;8809;-73
2022/04/23 09:30:07;;;;;;;;;10.50;10.50;;;;;;;;5226252;28;8817;-72
2022/04/23 09:32:54;;;;;;;;;5.00;5.00;;;;;;;;5209107;28;8821;-72
2022/04/23 09:35:25;;;;;;;;;6.75;6.75;;;;;;;;5219551;28;8842;-72
2022/04/23 09:38:20;;;;;;;;;7.00;7.00;;;;;;;;5204378;28;8970;-73
2022/04/23 09:40:52;;;;;;;;;5.00;5.00;;;;;;;;5221425;28;8826;-72
2022/04/23 09:43:28;;;;;;;;;2.00;2.00;;;;;;;;5235735;28;8812;-72
2022/04/23 09:46:07;;;;;;;;;3.00;3.00;;;;;;;;5216805;28;8802;-73
2022/04/23 09:48:39;;;;;;;;;6.00;6.00;;;;;;;;5189532;28;9563;-72
2022/04/23 09:51:24;;;;;;;;;6.00;6.00;;;;;;;;5196065;28;8805;-72
2022/04/23 09:54:14;;;;;;;;;6.00;6.00;;;;;;;;5209499;28;8813;-73
2022/04/23 09:56:44;;;;;;;;;8.75;8.75;;;;;;;;5207145;28;8812;-72
2022/04/23 09:59:15;;;;;;;;;5.25;5.00;;;;;;;;5218976;28;8821;-73
2022/04/23 10:01:47;;;;;;;;;6.00;6.00;;;;;;;;5228492;28;8797;-72
2022/04/23 10:04:21;;;;;;;;;9.25;9.25;;;;;;;;5189665;28;8843;-72
2022/04/23 10:06:53;;;;;;;;;5.00;5.00;;;;;;;;5239459;28;8830;-73
2022/04/23 10:09:27;;;;;;;;;10.50;8.75;;;;;;;;5207573;28;9178;-72
2022/04/23 10:12:02;;;;;;;;;5.00;5.00;;;;;;;;5226244;28;8801;-72
2022/04/23 10:14:46;;;;;;;;;4.25;4.25;;;;;;;;5226968;28;8890;-73
2022/04/23 10:17:20;;;;;;;;;7.75;7.75;;;;;;;;5205584;28;9554;-72
2022/04/23 10:19:51;;;;;;;;;47.60;40.40;;;;;;;;5198701;28;8805;-72
2022/04/23 10:22:29;;;;;;;;;11.80;11.40;;;;;;;;5208500;28;8826;-72
2022/04/23 10:24:59;;;;;;;;;9.25;9.25;;;;;;;;5207025;28;8852;-72
2022/04/23 10:27:30;;;;;;;;;12.75;11.50;;;;;;;;5206644;28;9556;-73
2022/04/23 10:30:04;;;;;;;;;30.80;29.80;;;;;;;;5187298;28;11554;-72
2022/04/23 10:32:38;;;;;;;;;15.20;14.40;;;;;;;;5217917;28;8816;-72
2022/04/23 10:35:18;;;;;;;;;10.20;10.20;;;;;;;;5190230;28;8895;-72
2022/04/23 10:37:49;;;;;;;;;13.40;12.40;;;;;;;;5228007;28;8811;-72
2022/04/23 10:40:21;;;;;;;;;13.00;13.00;;;;;;;;5246314;28;8783;-72
2022/04/23 10:43:04;;;;;;;;;8.75;8.75;;;;;;;;5199487;28;8994;-72
2022/04/23 10:45:36;;;;;;;;;6.50;6.50;;;;;;;;5226403;28;8867;-72
2022/04/23 10:48:23;;;;;;;;;7.50;7.50;;;;;;;;5191931;28;8878;-72
2022/04/23 10:51:02;;;;;;;;;13.20;13.20;;;;;;;;5208406;28;8801;-71
2022/04/23 10:53:37;;;;;;;;;10.00;10.00;;;;;;;;5208624;28;8836;-72
2022/04/23 10:56:10;;;;;;;;;12.50;12.50;;;;;;;;5208267;28;8804;-72
2022/04/23 10:58:41;;;;;;;;;9.75;9.75;;;;;;;;5224195;28;8833;-72
2022/04/23 11:01:22;;;;;;;;;12.50;12.50;;;;;;;;5206469;28;8802;-72
2022/04/23 11:04:06;;;;;;;;;8.50;8.00;;;;;;;;5224918;28;8790;-71
2022/04/23 11:12:55;;;;;;;;;12.50;12.50;;;;;;;;5193415;28;8808;-72
2022/04/23 11:15:26;;;;;;;;;10.25;10.25;;;;;;;;5208222;28;8806;-73
2022/04/23 11:17:58;;;;;;;;;10.00;10.00;;;;;;;;5225920;28;8817;-72
2022/04/23 11:20:49;;;;;;;;;7.20;6.00;;;;;;;;5230359;28;9528;-71
2022/04/23 11:23:20;;;;;;;;;9.25;9.25;;;;;;;;5208190;28;8817;-72
2022/04/23 11:25:55;;;;;;;;;6.75;6.75;;;;;;;;5208799;28;8786;-71
2022/04/23 11:28:26;;;;;;;;;9.75;9.00;;;;;;;;5209357;28;9547;-72
2022/04/23 11:31:00;;;;;;;;;7.67;7.67;;;;;;;;5209086;28;8794;-72
2022/04/23 11:33:31;;;;;;;;;8.25;8.25;;;;;;;;5221383;28;10385;-72
2022/04/23 11:36:04;;;;;;;;;7.00;7.00;;;;;;;;5204257;28;8793;-72
2022/04/23 11:38:41;;;;;;;;;8.50;8.50;;;;;;;;5220110;28;8968;-72
2022/04/23 11:41:25;;;;;;;;;10.00;10.00;;;;;;;;5204602;28;8784;-72
2022/04/23 11:43:56;;;;;;;;;12.00;12.00;;;;;;;;5227231;28;8921;-71
2022/04/23 11:46:47;;;;;;;;;9.00;9.00;;;;;;;;5233354;28;8805;-72
2022/04/23 11:49:29;;;;;;;;;6.25;6.25;;;;;;;;5196532;28;8784;-71
2022/04/23 11:52:06;;;;;;;;;10.25;10.25;;;;;;;;5212220;28;8820;-71
2022/04/23 11:54:37;;;;;;;;;10.25;10.25;;;;;;;;5211062;28;8822;-72
2022/04/23 11:57:09;;;;;;;;;5.67;5.33;;;;;;;;5230852;28;8931;-72
2022/04/23 11:59:44;;;;;;;;;11.00;11.00;;;;;;;;5225396;28;8806;-72
2022/04/23 12:02:15;;;;;;;;;6.00;6.00;;;;;;;;5207571;28;8798;-71
2022/04/23 12:05:05;;;;;;;;;7.25;7.25;;;;;;;;5208711;28;8964;-72
2022/04/23 12:07:36;;;;;;;;;7.75;7.75;;;;;;;;5223952;28;9507;-72
2022/04/23 12:10:07;;;;;;;;;7.00;7.00;;;;;;;;5222660;28;8810;-70
2022/04/23 12:12:38;;;;;;;;;6.25;6.25;;;;;;;;5206350;28;9720;-70
2022/04/23 12:15:10;;;;;;;;;6.75;6.50;;;;;;;;5206974;28;8849;-71
2022/04/23 12:17:45;;;;;;;;;7.00;7.00;;;;;;;;5206750;28;8800;-72
2022/04/23 12:20:20;;;;;;;;;11.50;11.50;;;;;;;;5221623;28;8844;-72
2022/04/23 12:22:58;;;;;;;;;8.25;8.25;;;;;;;;5208673;28;8782;-72
2022/04/23 12:25:30;;;;;;;;;6.00;6.00;;;;;;;;5204344;28;8828;-71
2022/04/23 12:28:01;;;;;;;;;18.00;17.75;;;;;;;;5208224;28;8906;-72
2022/04/23 12:42:20;;;;;;;;;4.75;3.75;;;;;;;;5229584;28;8935;-76
2022/04/23 12:44:57;;;;;;;;;7.00;7.00;;;;;;;;5210471;28;8836;-72
2022/04/23 12:47:35;;;;;;;;;9.25;9.25;;;;;;;;5203133;28;8808;-70
2022/04/23 12:50:07;;;;;;;;;4.00;4.00;;;;;;;;5209269;28;8852;-69
2022/04/23 12:52:44;;;;;;;;;7.00;7.00;;;;;;;;5210397;28;8821;-71
2022/04/23 12:55:25;;;;;;;;;4.00;4.00;;;;;;;;5204535;28;9453;-72
2022/04/23 12:58:14;;;;;;;;;7.75;6.75;;;;;;;;5212234;28;8809;-72
2022/04/23 13:00:45;;;;;;;;;5.67;5.00;;;;;;;;5209078;28;8820;-72
2022/04/23 13:09:09;;;;;;;;;7.75;7.75;;;;;;;;5207902;28;8793;-71
2022/04/23 13:11:40;;;;;;;;;16.25;15.75;;;;;;;;5219986;28;8858;-71
2022/04/23 13:14:11;;;;;;;;;12.50;11.75;;;;;;;;5204915;28;8811;-71
2022/04/23 13:16:43;;;;;;;;;8.00;8.00;;;;;;;;5203393;28;8760;-71
2022/04/23 13:19:15;;;;;;;;;20.20;18.60;;;;;;;;5212867;28;9530;-71
2022/04/23 13:21:45;;;;;;;;;16.20;15.60;;;;;;;;5186900;28;8816;-71
2022/04/23 13:24:16;;;;;;;;;5.00;5.00;;;;;;;;5219628;28;9432;-71
2022/04/23 13:26:47;;;;;;;;;6.00;6.00;;;;;;;;5212586;28;8822;-72
2022/04/23 13:29:18;;;;;;;;;15.33;15.00;;;;;;;;5222878;28;11478;-71
2022/04/23 13:32:07;;;;;;;;;16.60;16.60;;;;;;;;5209479;28;11579;-71
2022/04/23 13:34:38;;;;;;;;;13.50;13.50;;;;;;;;5190956;28;8833;-71
2022/04/23 13:37:09;;;;;;;;;13.67;13.67;;;;;;;;5224818;28;8812;-72
2022/04/23 13:39:40;;;;;;;;;9.25;9.25;;;;;;;;5187287;28;11537;-72
2022/04/23 13:42:12;;;;;;;;;3.33;3.33;;;;;;;;5222306;28;8805;-73
2022/04/23 13:44:42;;;;;;;;;10.00;10.00;;;;;;;;5222870;28;9658;-72
2022/04/23 13:47:33;;;;;;;;;24.20;23.40;;;;;;;;5221763;28;8789;-73
2022/04/23 13:50:04;;;;;;;;;13.25;12.25;;;;;;;;5221508;28;8804;-67
2022/04/23 13:52:35;;;;;;;;;5.00;5.00;;;;;;;;5221733;28;8817;-74
2022/04/23 13:55:06;;;;;;;;;22.50;22.25;;;;;;;;5221873;28;8948;-74
2022/04/23 13:57:55;;;;;;;;;14.75;13.50;;;;;;;;5208505;28;8825;-75
2022/04/23 14:00:26;;;;;;;;;26.25;25.50;;;;;;;;5215910;28;8804;-75
2022/04/23 14:11:25;;;;;;;;;8.00;8.00;;;;;;;;5225347;28;8832;-74
2022/04/23 14:13:56;;;;;;;;;8.67;8.67;;;;;;;;5223779;28;8829;-75
2022/04/23 14:16:27;;;;;;;;;4.75;4.75;;;;;;;;5225134;28;10577;-75
2022/04/23 14:18:58;;;;;;;;;8.00;8.00;;;;;;;;5226347;28;8806;-75
2022/04/23 14:21:47;;;;;;;;;9.75;9.50;;;;;;;;5224803;28;8818;-75
2022/04/23 14:24:18;;;;;;;;;11.00;11.00;;;;;;;;5225153;28;8830;-75
2022/04/23 14:26:49;;;;;;;;;10.33;10.33;;;;;;;;5191255;28;8809;-75
2022/04/23 14:29:20;;;;;;;;;8.00;8.00;;;;;;;;5226135;28;8793;-75
2022/04/23 14:31:50;;;;;;;;;9.00;9.00;;;;;;;;5192043;28;8940;-75
2022/04/23 14:34:21;;;;;;;;;10.00;10.00;;;;;;;;5223660;28;8814;-74
2022/04/23 14:36:52;;;;;;;;;5.67;5.67;;;;;;;;5223556;28;11482;-75
2022/04/23 14:39:23;;;;;;;;;9.25;9.25;;;;;;;;5226347;28;8787;-74
2022/04/23 14:41:54;;;;;;;;;16.67;16.67;;;;;;;;5209362;28;8832;-73
2022/04/23 14:44:25;;;;;;;;;21.00;21.00;;;;;;;;5226337;28;8810;-74
2022/04/23 14:46:56;;;;;;;;;12.00;12.00;;;;;;;;5209256;28;8855;-74
2022/04/23 14:49:46;;;;;;;;;21.50;18.75;;;;;;;;5226341;28;8860;-74
2022/04/23 14:55:06;;;;;;;;;20.00;20.00;;;;;;;;5226489;28;8849;-76
2022/04/23 14:57:37;;;;;;;;;23.00;22.75;;;;;;;;5226561;28;8871;-74
2022/04/23 15:00:08;;;;;;;;;24.67;23.67;;;;;;;;5217045;28;8788;-75
2022/04/23 15:02:39;;;;;;;;;26.50;26.50;;;;;;;;5246328;28;12303;-75
2022/04/23 15:05:10;;;;;;;;;14.33;14.33;;;;;;;;5214156;28;8798;-75
2022/04/23 15:07:41;;;;;;;;;12.50;12.50;;;;;;;;5209173;28;9891;-74
2022/04/23 15:10:13;;;;;;;;;8.75;8.75;;;;;;;;5225576;28;8849;-75
2022/04/23 15:12:44;;;;;;;;;7.00;7.00;;;;;;;;5209454;28;8764;-75
2022/04/23 15:15:15;;;;;;;;;10.00;10.00;;;;;;;;5209171;28;8826;-75
2022/04/23 15:17:47;;;;;;;;;16.00;16.00;;;;;;;;5222399;28;8778;-75
2022/04/23 15:20:17;;;;;;;;;19.33;19.00;;;;;;;;5226843;28;8797;-75
2022/04/23 15:22:48;;;;;;;;;13.00;13.00;;;;;;;;5208759;28;8927;-75
2022/04/23 15:25:38;;;;;;;;;13.25;13.25;;;;;;;;5225411;28;11547;-74
2022/04/23 15:28:09;;;;;;;;;15.00;12.50;;;;;;;;5225975;28;8862;-74
2022/04/23 15:30:40;;;;;;;;;12.33;12.00;;;;;;;;5226725;28;8782;-74
2022/04/23 15:33:11;;;;;;;;;9.00;9.00;;;;;;;;5226779;28;9437;-75
2022/04/23 15:36:01;;;;;;;;;7.50;7.50;;;;;;;;5225288;28;8797;-74
2022/04/23 15:38:32;;;;;;;;;11.75;11.75;;;;;;;;5226229;28;8782;-74
2022/04/23 15:41:03;;;;;;;;;11.75;11.00;;;;;;;;5207718;28;9522;-74
2022/04/23 15:43:34;;;;;;;;;13.75;13.75;;;;;;;;5228407;28;8798;-76
2022/04/23 15:46:05;;;;;;;;;19.75;19.00;;;;;;;;5221639;28;9958;-74
2022/04/23 15:48:40;;;;;;;;;27.80;26.40;;;;;;;;5222656;28;8808;-74
2022/04/23 15:51:11;;;;;;;;;40.00;35.80;;;;;;;;5203829;28;8793;-74
2022/04/23 15:53:42;;;;;;;;;37.60;33.80;;;;;;;;5205533;28;8828;-72
2022/04/23 15:56:13;;;;;;;;;53.50;43.00;;;;;;;;5187899;28;9531;-78
2022/04/23 15:58:43;;;;;;;;;60.25;47.75;;;;;;;;5259595;28;11169;-79
2022/04/23 16:01:16;;;;;;;;;40.50;36.25;;;;;;;;5232015;28;8973;-77
2022/04/23 16:03:47;;;;;;;;;19.80;18.60;;;;;;;;5215722;28;8822;-75
2022/04/23 16:06:18;;;;;;;;;38.80;35.00;;;;;;;;5235524;28;8790;-76
2022/04/23 16:08:48;;;;;;;;;19.00;19.00;;;;;;;;5235926;28;8970;-78
2022/04/23 16:11:19;;;;;;;;;24.00;23.75;;;;;;;;5231746;28;9548;-79
2022/04/23 16:13:50;;;;;;;;;16.50;16.00;;;;;;;;5224790;28;8814;-77